createdAt,value
2019-05-15T00:00:55.768Z,6.00
2019-05-15T00:03:22.447Z,6.00
2019-05-15T00:05:49.713Z,5.90
2019-05-15T00:08:18.331Z,5.80
2019-05-15T00:10:45.112Z,5.80
2019-05-15T00:13:11.736Z,5.70
2019-05-15T00:15:40.078Z,5.70
2019-05-15T00:18:08.815Z,5.60
2019-05-15T00:20:35.706Z,5.50
2019-05-15T00:23:02.336Z,5.60
2019-05-15T00:25:29.321Z,5.50
2019-05-15T00:27:58.142Z,5.40
2019-05-15T00:30:24.929Z,5.20
2019-05-15T00:32:51.532Z,5.20
2019-05-15T00:35:18.543Z,5.20
2019-05-15T00:37:49.228Z,5.20
2019-05-15T00:40:18.308Z,5.10
2019-05-15T00:42:45.152Z,5.20
2019-05-15T00:45:13.230Z,5.20
2019-05-15T00:47:40.005Z,5.10
2019-05-15T00:50:08.870Z,5.00
2019-05-15T00:52:35.598Z,5.00
2019-05-15T00:55:02.471Z,5.00
2019-05-15T00:57:29.185Z,5.00
2019-05-15T00:59:55.830Z,4.90
2019-05-15T01:02:22.879Z,4.90
2019-05-15T01:04:50.060Z,4.90
2019-05-15T01:07:18.675Z,4.90
2019-05-15T01:09:46.028Z,5.00
2019-05-15T01:12:12.654Z,5.00
2019-05-15T01:14:40.662Z,4.90
2019-05-15T01:17:09.067Z,4.90
2019-05-15T01:19:37.946Z,4.80
2019-05-15T01:22:04.773Z,4.80
2019-05-15T01:24:31.370Z,4.80
2019-05-15T01:26:58.498Z,4.80
2019-05-15T01:29:40.061Z,4.80
2019-05-15T01:31:53.940Z,4.80
2019-05-15T01:34:20.839Z,4.80
2019-05-15T01:36:48.908Z,4.80
2019-05-15T01:39:18.319Z,4.70
2019-05-15T01:41:44.660Z,4.70
2019-05-15T01:44:12.413Z,4.70
2019-05-15T01:46:41.234Z,4.70
2019-05-15T01:49:08.114Z,4.70
2019-05-15T01:51:34.869Z,4.70
2019-05-15T01:54:01.510Z,4.70
2019-05-15T01:56:29.273Z,4.70
2019-05-15T01:58:57.951Z,4.60
2019-05-15T02:01:28.184Z,4.70
2019-05-15T02:03:54.233Z,4.60
2019-05-15T02:06:20.986Z,4.60
2019-05-15T02:08:49.664Z,4.60
2019-05-15T02:11:18.077Z,4.50
2019-05-15T02:13:44.993Z,4.50
2019-05-15T02:16:11.647Z,4.50
2019-05-15T02:18:39.211Z,4.50
2019-05-15T02:21:06.797Z,4.50
2019-05-15T02:23:34.750Z,4.40
2019-05-15T02:26:01.694Z,4.40
2019-05-15T02:28:28.902Z,4.30
2019-05-15T02:30:58.497Z,4.20
2019-05-15T02:33:24.240Z,4.20
2019-05-15T02:35:50.823Z,4.10
2019-05-15T02:38:19.994Z,4.10
2019-05-15T02:40:49.172Z,4.10
2019-05-15T02:43:14.432Z,4.10
2019-05-15T02:45:43.056Z,4.00
2019-05-15T02:48:09.687Z,4.00
2019-05-15T02:50:39.206Z,3.90
2019-05-15T02:53:09.486Z,3.90
2019-05-15T02:55:34.780Z,3.90
2019-05-15T02:58:01.378Z,3.90
2019-05-15T03:00:41.215Z,3.90
2019-05-15T03:02:59.910Z,3.90
2019-05-15T03:05:25.287Z,3.90
2019-05-15T03:07:52.233Z,3.90
2019-05-15T03:10:19.945Z,3.80
2019-05-15T03:12:49.512Z,3.80
2019-05-15T03:15:15.566Z,3.90
2019-05-15T03:17:42.383Z,3.80
2019-05-15T03:20:10.585Z,3.70
2019-05-15T03:22:40.116Z,3.80
2019-05-15T03:25:10.579Z,3.80
2019-05-15T03:27:39.160Z,3.80
2019-05-15T03:30:05.367Z,3.80
2019-05-15T03:32:40.862Z,3.80
2019-05-15T03:35:04.715Z,3.80
2019-05-15T03:37:33.671Z,3.80
2019-05-15T03:39:59.586Z,3.90
2019-05-15T03:42:29.138Z,3.90
2019-05-15T03:44:55.321Z,4.00
2019-05-15T03:47:22.017Z,3.90
2019-05-15T03:49:49.519Z,4.00
2019-05-15T03:52:19.157Z,4.10
2019-05-15T03:54:49.240Z,4.20
2019-05-15T03:57:14.518Z,4.30
2019-05-15T03:59:41.252Z,4.30
2019-05-15T04:02:08.632Z,4.40
2019-05-15T04:04:35.329Z,4.40
2019-05-15T04:07:02.035Z,4.50
2019-05-15T04:09:29.378Z,4.60
2019-05-15T04:11:59.785Z,4.70
2019-05-15T04:14:25.327Z,4.80
2019-05-15T04:16:52.049Z,4.80
2019-05-15T04:19:19.294Z,4.90
2019-05-15T04:21:49.164Z,5.10
2019-05-15T04:24:15.298Z,5.10
2019-05-15T04:26:44.304Z,5.20
2019-05-15T04:29:11.503Z,5.10
2019-05-15T04:31:52.019Z,5.10
2019-05-15T04:34:09.168Z,5.10
2019-05-15T04:36:35.186Z,5.10
2019-05-15T04:39:01.821Z,5.10
2019-05-15T04:41:29.925Z,5.10
2019-05-15T04:43:59.499Z,5.20
2019-05-15T04:46:25.955Z,5.20
2019-05-15T04:48:52.563Z,5.40
2019-05-15T04:51:19.369Z,5.50
2019-05-15T04:53:49.903Z,5.70
2019-05-15T04:56:14.882Z,5.80
2019-05-15T04:58:42.641Z,6.00
2019-05-15T05:01:09.763Z,6.10
2019-05-15T05:03:39.370Z,6.20
2019-05-15T05:06:05.200Z,6.40
2019-05-15T05:08:32.247Z,6.50
2019-05-15T05:10:59.428Z,6.70
2019-05-15T05:13:28.658Z,6.80
2019-05-15T05:15:54.747Z,7.00
2019-05-15T05:18:21.334Z,7.00
2019-05-15T05:20:48.721Z,7.20
2019-05-15T05:23:15.757Z,7.30
2019-05-15T05:25:42.367Z,7.40
2019-05-15T05:28:08.979Z,7.50
2019-05-15T05:30:38.423Z,7.50
2019-05-15T05:33:04.463Z,7.50
2019-05-15T05:35:31.149Z,7.40
2019-05-15T05:37:58.388Z,7.50
2019-05-15T05:40:25.161Z,7.60
2019-05-15T05:42:52.077Z,7.60
2019-05-15T05:45:18.927Z,7.60
2019-05-15T05:47:45.545Z,7.80
2019-05-15T05:50:14.265Z,7.90
2019-05-15T05:52:41.248Z,8.10
2019-05-15T05:55:08.808Z,8.20
2019-05-15T05:57:38.040Z,8.30
2019-05-15T06:00:04.745Z,8.30
2019-05-15T06:02:43.826Z,8.50
2019-05-15T06:05:00.356Z,8.60
2019-05-15T06:07:27.933Z,8.60
2019-05-15T06:09:54.810Z,8.80
2019-05-15T06:12:21.473Z,9.00
2019-05-15T06:14:48.467Z,9.10
2019-05-15T06:19:43.811Z,9.40
2019-05-15T06:22:10.541Z,9.50
2019-05-15T06:24:37.929Z,9.80
2019-05-15T06:27:04.763Z,9.90
2019-05-15T06:29:31.372Z,10.20
2019-05-15T06:31:58.806Z,10.60
2019-05-15T06:34:25.651Z,11.20
2019-05-15T06:36:52.332Z,11.70
2019-05-15T06:39:18.955Z,12.20
2019-05-15T06:41:48.087Z,13.00
2019-05-15T06:44:14.143Z,13.30
2019-05-15T06:46:40.817Z,14.10
2019-05-15T06:49:08.441Z,15.10
2019-05-15T06:51:37.736Z,15.90
2019-05-15T06:54:03.898Z,16.50
2019-05-15T06:56:30.509Z,16.80
2019-05-15T06:58:58.194Z,17.00
2019-05-15T07:01:25.269Z,16.00
2019-05-15T07:03:51.969Z,14.80
2019-05-15T07:06:18.705Z,13.80
2019-05-15T07:08:45.292Z,13.10
2019-05-15T07:11:11.929Z,12.90
2019-05-15T07:13:38.659Z,12.80
2019-05-15T07:16:07.887Z,13.20
2019-05-15T07:18:34.139Z,13.60
2019-05-15T07:21:00.740Z,13.60
2019-05-15T07:23:30.558Z,13.60
2019-05-15T07:25:58.559Z,13.60
2019-05-15T07:28:24.488Z,13.70
2019-05-15T07:30:51.113Z,14.20
2019-05-15T07:33:23.465Z,13.70
2019-05-15T07:35:48.689Z,13.20
2019-05-15T07:38:14.997Z,13.70
2019-05-15T07:40:41.656Z,15.10
2019-05-15T07:43:09.311Z,15.20
2019-05-15T07:45:42.557Z,15.90
2019-05-15T07:48:04.865Z,16.60
2019-05-15T07:50:31.513Z,17.00
2019-05-15T07:52:58.996Z,16.40
2019-05-15T07:55:25.834Z,16.40
2019-05-15T07:57:52.714Z,16.30
2019-05-15T08:00:21.770Z,16.00
2019-05-15T08:02:48.582Z,16.40
2019-05-15T08:05:18.247Z,16.50
2019-05-15T08:07:44.852Z,16.20
2019-05-15T08:10:31.163Z,15.80
2019-05-15T08:12:58.169Z,16.00
2019-05-15T08:15:28.562Z,16.10
2019-05-15T08:18:05.549Z,16.40
2019-05-15T08:20:23.748Z,17.10
2019-05-15T08:22:50.410Z,17.40
2019-05-15T08:25:31.223Z,17.80
2019-05-15T08:27:48.494Z,18.30
2019-05-15T08:30:18.194Z,18.50
2019-05-15T08:32:44.367Z,18.20
2019-05-15T08:35:12.713Z,17.90
2019-05-15T08:37:39.613Z,18.30
2019-05-15T08:40:08.576Z,18.30
2019-05-15T08:42:41.581Z,17.80
2019-05-15T08:45:05.832Z,17.60
2019-05-15T08:47:32.571Z,17.70
2019-05-15T08:49:59.176Z,17.20
2019-05-15T08:52:28.165Z,17.70
2019-05-15T08:54:54.481Z,18.40
2019-05-15T08:57:21.134Z,19.20
2019-05-15T08:59:48.843Z,19.40
2019-05-15T09:02:16.393Z,18.50
2019-05-15T09:04:44.289Z,19.40
2019-05-15T09:07:11.252Z,19.30
2019-05-15T09:09:38.433Z,19.10
2019-05-15T09:12:08.076Z,20.20
2019-05-15T09:14:33.794Z,21.10
2019-05-15T09:17:00.437Z,21.90
2019-05-15T09:19:28.090Z,21.90
2019-05-15T09:21:55.169Z,21.70
2019-05-15T09:24:22.098Z,20.90
2019-05-15T09:26:49.262Z,20.90
2019-05-15T09:29:18.201Z,21.40
2019-05-15T09:31:44.729Z,21.90
2019-05-15T09:34:11.903Z,22.20
2019-05-15T09:36:42.298Z,22.10
2019-05-15T09:39:08.721Z,20.90
2019-05-15T09:41:37.915Z,21.60
2019-05-15T09:44:04.079Z,20.50
2019-05-15T09:46:31.078Z,20.10
2019-05-15T09:48:59.303Z,19.50
2019-05-15T09:51:28.873Z,18.70
2019-05-15T09:53:54.883Z,17.90
2019-05-15T09:56:21.633Z,17.50
2019-05-15T09:58:48.804Z,17.60
2019-05-15T10:01:19.712Z,17.60
2019-05-15T10:03:48.269Z,17.50
2019-05-15T10:06:14.133Z,17.10
2019-05-15T10:08:40.754Z,16.80
2019-05-15T10:11:09.156Z,16.80
2019-05-15T10:13:38.249Z,17.10
2019-05-15T10:16:05.060Z,17.10
2019-05-15T10:18:31.645Z,17.20
2019-05-15T10:20:58.552Z,16.50
2019-05-15T10:23:25.199Z,16.60
2019-05-15T10:25:51.925Z,17.00
2019-05-15T10:28:19.074Z,16.90
2019-05-15T10:30:48.803Z,16.80
2019-05-15T10:33:14.898Z,16.80
2019-05-15T10:35:41.480Z,16.80
2019-05-15T10:38:08.826Z,16.90
2019-05-15T10:40:35.774Z,16.60
2019-05-15T10:43:02.446Z,16.40
2019-05-15T10:45:29.711Z,16.30
2019-05-15T10:47:58.539Z,16.10
2019-05-15T10:50:28.157Z,16.00
2019-05-15T10:52:53.945Z,16.10
2019-05-15T10:55:21.022Z,16.00
2019-05-15T10:57:47.683Z,16.10
2019-05-15T11:00:15.698Z,16.10
2019-05-15T11:02:42.377Z,15.80
2019-05-15T11:05:10.206Z,15.90
2019-05-15T11:07:39.324Z,15.50
2019-05-15T11:10:08.443Z,15.30
2019-05-15T11:12:34.903Z,15.20
2019-05-15T11:15:01.610Z,15.20
2019-05-15T11:17:28.730Z,15.50
2019-05-15T11:19:58.626Z,15.20
2019-05-15T11:22:25.424Z,14.90
2019-05-15T11:24:53.083Z,14.60
2019-05-15T11:27:20.041Z,15.00
2019-05-15T11:29:47.784Z,15.10
2019-05-15T11:32:14.629Z,15.30
2019-05-15T11:34:41.267Z,15.80
2019-05-15T11:37:07.979Z,15.80
2019-05-15T11:39:34.625Z,15.80
2019-05-15T11:42:01.301Z,15.90
2019-05-15T11:44:28.466Z,15.60
2019-05-15T11:46:55.091Z,15.60
2019-05-15T11:49:22.175Z,15.70
2019-05-15T11:51:49.330Z,16.30
2019-05-15T11:54:18.914Z,16.20
2019-05-15T11:56:48.858Z,16.70
2019-05-15T11:59:14.808Z,17.30
2019-05-15T12:01:41.853Z,17.50
2019-05-15T12:04:09.297Z,17.40
2019-05-15T12:06:38.412Z,17.70
2019-05-15T12:09:05.930Z,17.80
2019-05-15T12:11:36.983Z,18.00
2019-05-15T12:14:01.426Z,18.00
2019-05-15T12:16:29.059Z,18.10
2019-05-15T12:18:55.937Z,18.40
2019-05-15T12:21:22.769Z,18.60
2019-05-15T12:23:49.551Z,18.50
2019-05-15T12:26:16.368Z,18.40
2019-05-15T12:28:43.077Z,18.20
2019-05-15T12:31:09.769Z,18.00
2019-05-15T12:33:38.427Z,18.10
2019-05-15T12:36:05.337Z,17.80
2019-05-15T12:38:32.449Z,17.80
2019-05-15T13:00:48.943Z,17.10
2019-05-15T13:03:18.213Z,16.90
2019-05-15T13:05:45.129Z,16.70
2019-05-15T13:08:11.807Z,16.60
2019-05-15T13:10:38.885Z,16.40
2019-05-15T13:13:08.511Z,16.20
2019-05-15T13:15:34.473Z,16.00
2019-05-15T13:18:01.225Z,15.90
2019-05-15T13:20:28.860Z,15.70
2019-05-15T13:22:55.676Z,15.70
2019-05-15T13:25:23.443Z,15.30
2019-05-15T13:27:50.272Z,14.60
2019-05-15T13:30:18.340Z,14.50
2019-05-15T13:32:45.145Z,14.10
2019-05-15T13:35:12.545Z,13.80
2019-05-15T13:37:39.312Z,13.40
2019-05-15T13:40:07.734Z,13.10
2019-05-15T13:42:34.618Z,12.80
2019-05-15T13:45:01.369Z,12.60
2019-05-15T13:47:28.241Z,12.20
2019-05-15T13:49:54.940Z,12.20
2019-05-15T13:52:21.694Z,12.20
2019-05-15T13:54:48.475Z,12.40
2019-05-15T13:57:17.936Z,12.40
2019-05-15T13:59:48.191Z,12.30
2019-05-15T14:02:15.484Z,12.30
2019-05-15T14:04:43.323Z,12.30
2019-05-15T14:07:10.023Z,12.30
2019-05-15T14:09:43.600Z,12.50
2019-05-15T14:12:05.128Z,12.60
2019-05-15T14:14:31.749Z,12.70
2019-05-15T14:16:59.223Z,12.80
2019-05-15T14:19:27.989Z,13.00
2019-05-15T14:21:54.936Z,13.10
2019-05-15T14:24:21.772Z,13.20
2019-05-15T14:26:48.704Z,13.20
2019-05-15T14:29:15.404Z,13.30
2019-05-15T14:31:42.133Z,13.40
2019-05-15T14:34:08.981Z,13.40
2019-05-15T14:36:36.583Z,13.50
2019-05-15T14:39:07.904Z,13.90
2019-05-15T14:41:34.035Z,14.10
2019-05-15T14:44:13.155Z,14.30
2019-05-15T14:46:29.183Z,14.30
2019-05-15T14:48:58.185Z,14.50
2019-05-15T14:51:24.525Z,14.60
2019-05-15T14:53:51.124Z,14.40
2019-05-15T14:56:18.643Z,14.50
2019-05-15T14:58:47.861Z,14.60
2019-05-15T15:01:15.526Z,14.60
2019-05-15T15:03:42.270Z,14.50
2019-05-15T15:06:08.969Z,14.50
2019-05-15T15:08:35.678Z,14.70
2019-05-15T15:11:02.319Z,14.90
2019-05-15T15:13:29.233Z,15.10
2019-05-15T15:15:56.116Z,15.10
2019-05-15T15:18:22.960Z,15.20
2019-05-15T15:20:49.607Z,15.00
2019-05-15T15:23:16.394Z,15.10
2019-05-15T15:25:43.153Z,15.10
2019-05-15T15:28:09.951Z,15.00
2019-05-15T15:30:38.538Z,14.90
2019-05-15T15:33:05.204Z,14.80
2019-05-15T15:35:31.942Z,14.80
2019-05-15T15:37:58.741Z,14.70
2019-05-15T15:40:28.178Z,14.70
2019-05-15T15:42:54.156Z,14.70
2019-05-15T15:45:21.054Z,14.60
2019-05-15T15:47:48.163Z,14.50
2019-05-15T15:50:18.142Z,14.30
2019-05-15T15:52:44.825Z,14.30
2019-05-15T15:55:12.160Z,14.20
2019-05-15T15:57:39.836Z,14.10
2019-05-15T16:00:08.846Z,14.10
2019-05-15T16:02:35.623Z,14.10
2019-05-15T16:05:02.455Z,14.00
2019-05-15T16:07:29.375Z,14.00
2019-05-15T16:09:55.991Z,14.00
2019-05-15T16:12:22.629Z,13.90
2019-05-15T16:14:49.368Z,14.10
2019-05-15T16:17:18.126Z,14.20
2019-05-15T16:19:44.596Z,14.10
2019-05-15T16:22:11.306Z,14.00
2019-05-15T16:24:38.677Z,13.90
2019-05-15T16:27:05.780Z,13.80
2019-05-15T16:29:34.662Z,13.70
2019-05-15T16:32:01.474Z,13.60
2019-05-15T16:34:28.474Z,13.50
2019-05-15T16:36:55.180Z,13.40
2019-05-15T16:39:21.905Z,13.30
2019-05-15T16:41:49.022Z,13.10
2019-05-15T16:44:15.839Z,12.80
2019-05-15T16:46:42.659Z,12.90
2019-05-15T16:49:09.311Z,12.90
2019-05-15T16:51:38.118Z,12.80
2019-05-15T16:54:04.680Z,12.80
2019-05-15T16:56:31.299Z,12.60
2019-05-15T16:58:59.685Z,12.60
2019-05-15T17:01:28.967Z,12.50
2019-05-15T17:03:55.395Z,12.50
2019-05-15T17:06:22.087Z,12.50
2019-05-15T17:08:48.937Z,12.40
2019-05-15T17:11:15.733Z,12.40
2019-05-15T17:13:42.884Z,12.40
2019-05-15T17:16:10.008Z,12.40
2019-05-15T17:18:38.098Z,12.30
2019-05-15T17:21:04.969Z,12.40
2019-05-15T17:23:32.021Z,12.30
2019-05-15T17:25:59.180Z,12.10
2019-05-15T17:28:25.934Z,12.10
2019-05-15T17:30:52.583Z,11.90
2019-05-15T17:33:19.181Z,11.90
2019-05-15T17:35:45.896Z,11.90
2019-05-15T17:38:12.644Z,11.90
2019-05-15T17:40:39.227Z,11.90
2019-05-15T17:43:05.845Z,11.80
2019-05-15T17:45:33.018Z,11.70
2019-05-15T17:47:59.687Z,11.40
2019-05-15T17:50:28.332Z,11.40
2019-05-15T17:52:54.921Z,11.20
2019-05-15T17:55:21.750Z,10.80
2019-05-15T17:57:56.499Z,10.50
2019-05-15T18:00:19.055Z,10.30
2019-05-15T18:02:48.608Z,10.20
2019-05-15T18:05:18.620Z,10.10
2019-05-15T18:07:44.779Z,10.00
2019-05-15T18:10:11.596Z,10.00
2019-05-15T18:12:39.026Z,9.90
2019-05-15T18:15:08.792Z,9.80
2019-05-15T18:17:54.933Z,9.80
2019-05-15T18:20:25.146Z,9.80
2019-05-15T18:22:52.099Z,9.80
2019-05-15T18:25:18.936Z,9.90
2019-05-15T18:27:47.903Z,9.90
2019-05-15T18:30:14.825Z,10.00
2019-05-15T18:32:41.462Z,10.00
2019-05-15T18:35:08.817Z,10.00
2019-05-15T18:37:35.547Z,10.10
2019-05-15T18:40:06.072Z,10.10
2019-05-15T18:42:31.095Z,10.20
2019-05-15T18:44:58.349Z,10.20
2019-05-15T18:47:25.331Z,10.20
2019-05-15T18:50:04.026Z,10.20
2019-05-15T18:52:20.842Z,10.20
2019-05-15T18:54:48.173Z,10.30
2019-05-15T18:57:15.025Z,10.40
2019-05-15T18:59:41.691Z,10.40
2019-05-15T19:02:08.568Z,10.40
2019-05-15T19:04:35.203Z,10.40
2019-05-15T19:07:01.831Z,10.40
2019-05-15T19:09:28.435Z,10.40
2019-05-15T19:11:55.396Z,10.50
2019-05-15T19:14:23.813Z,10.50
2019-05-15T19:16:50.949Z,10.30
2019-05-15T19:19:18.531Z,10.30
2019-05-15T19:21:45.311Z,10.30
2019-05-15T19:24:11.936Z,10.30
2019-05-15T19:26:39.155Z,10.30
2019-05-15T19:29:25.437Z,10.30
2019-05-15T19:31:52.183Z,10.30
2019-05-15T19:34:19.152Z,10.30
2019-05-15T19:36:45.862Z,10.20
2019-05-15T19:39:14.435Z,10.40
2019-05-15T19:41:41.028Z,10.40
2019-05-15T19:44:08.777Z,10.30
2019-05-15T19:46:35.640Z,10.30
2019-05-15T19:49:02.273Z,10.40
2019-05-15T19:51:29.186Z,10.30
2019-05-15T19:53:58.475Z,10.30
2019-05-15T19:56:24.464Z,10.30
2019-05-15T19:58:51.091Z,10.30
2019-05-15T20:01:18.851Z,10.30
2019-05-15T20:03:50.678Z,10.30
2019-05-15T20:06:14.193Z,10.20
2019-05-15T20:08:40.902Z,10.20
2019-05-15T20:11:10.443Z,10.30
2019-05-15T20:13:38.396Z,10.30
2019-05-15T20:16:05.282Z,10.20
2019-05-15T20:18:31.968Z,10.20
2019-05-15T20:20:58.896Z,10.20
2019-05-15T20:23:25.631Z,10.20
2019-05-15T20:25:52.450Z,10.30
2019-05-15T20:28:19.218Z,10.30
2019-05-15T20:30:48.093Z,10.20
2019-05-15T20:33:14.487Z,10.20
2019-05-15T20:35:41.378Z,10.20
2019-05-15T20:38:08.328Z,10.10
2019-05-15T20:40:34.937Z,10.20
2019-05-15T20:43:01.756Z,10.20
2019-05-15T20:45:29.252Z,10.20
2019-05-15T20:47:58.524Z,10.10
2019-05-15T20:50:24.868Z,10.10
2019-05-15T20:52:51.776Z,10.10
2019-05-15T20:55:18.586Z,10.20
2019-05-15T20:57:47.723Z,10.10
2019-05-15T21:00:15.430Z,10.10
2019-05-15T21:02:42.033Z,10.20
2019-05-15T21:05:09.213Z,10.10
2019-05-15T21:07:39.962Z,10.10
2019-05-15T21:10:04.794Z,10.10
2019-05-15T21:12:31.811Z,10.20
2019-05-15T21:14:58.727Z,10.20
2019-05-15T21:17:25.380Z,10.30
2019-05-15T21:19:52.753Z,10.30
2019-05-15T21:22:19.368Z,10.20
2019-05-15T21:24:45.971Z,10.20
2019-05-15T21:27:12.625Z,10.20
2019-05-15T21:29:40.538Z,10.20
2019-05-15T21:32:08.442Z,10.10
2019-05-15T21:34:40.661Z,10.10
2019-05-15T21:37:04.094Z,10.20
2019-05-15T21:39:30.793Z,10.30
2019-05-15T21:41:58.297Z,10.30
2019-05-15T21:44:25.357Z,10.20
2019-05-15T21:46:52.033Z,10.20
2019-05-15T21:49:19.204Z,10.20
2019-05-15T21:51:47.913Z,10.20
2019-05-15T21:54:14.731Z,10.10
2019-05-15T21:56:41.975Z,10.10
2019-05-15T21:59:08.612Z,10.10
2019-05-15T22:01:35.510Z,10.10
2019-05-15T22:04:02.345Z,10.10
2019-05-15T22:06:29.436Z,10.10
2019-05-15T22:08:58.239Z,10.10
2019-05-15T22:11:24.945Z,10.10
2019-05-15T22:13:51.556Z,10.20
2019-05-15T22:16:19.023Z,10.20
2019-05-15T22:18:47.712Z,10.20
2019-05-15T22:21:14.600Z,10.20
2019-05-15T22:23:41.224Z,10.20
2019-05-15T22:26:07.961Z,10.10
2019-05-15T22:28:35.035Z,10.10
2019-05-15T22:31:01.721Z,10.10
2019-05-15T22:33:28.526Z,10.10
2019-05-15T22:35:55.805Z,10.10
2019-05-15T22:38:22.790Z,10.00
2019-05-15T22:40:49.441Z,10.00
2019-05-15T22:43:18.452Z,10.10
2019-05-15T22:45:45.067Z,10.00
2019-05-15T22:48:12.440Z,10.00
2019-05-15T22:50:39.214Z,10.00
2019-05-15T22:53:05.911Z,9.90
2019-05-15T22:55:32.627Z,9.90
2019-05-15T22:57:59.649Z,9.90
2019-05-15T23:00:28.983Z,9.70
2019-05-15T23:02:57.839Z,9.50
2019-05-15T23:05:28.465Z,9.30
2019-05-15T23:07:53.000Z,9.10
2019-05-15T23:10:20.152Z,8.90
2019-05-15T23:12:48.692Z,8.80
2019-05-15T23:15:18.711Z,8.80
2019-05-15T23:17:44.771Z,8.70
2019-05-15T23:20:11.807Z,8.60
2019-05-15T23:22:38.729Z,8.50
2019-05-15T23:25:05.950Z,8.40
2019-05-15T23:27:32.639Z,8.40
2019-05-15T23:29:59.326Z,8.40
2019-05-15T23:32:26.024Z,8.30
2019-05-15T23:34:52.700Z,8.40
2019-05-15T23:37:19.326Z,8.30
2019-05-15T23:39:48.554Z,8.30
2019-05-15T23:42:14.711Z,8.40
2019-05-15T23:44:41.490Z,8.40
2019-05-15T23:47:08.425Z,8.40
2019-05-15T23:49:35.029Z,8.40
2019-05-15T23:52:01.629Z,8.50
2019-05-15T23:54:28.227Z,8.50
2019-05-15T23:56:54.827Z,8.40
2019-05-15T23:59:21.536Z,8.50
